createdAt,value
2022-10-10T00:01:30.005Z,100702.72
2022-10-10T00:03:58.643Z,100704.44
2022-10-10T00:06:31.795Z,100694.78
2022-10-10T00:09:01.706Z,100688.56
2022-10-10T00:11:30.512Z,100693.84
2022-10-10T00:14:00.094Z,100690.34
2022-10-10T00:16:28.276Z,100693.88
2022-10-10T00:18:55.750Z,100686.81
2022-10-10T00:21:23.310Z,100694.75
2022-10-10T00:23:52.778Z,100696.50
2022-10-10T00:26:21.729Z,100699.19
2022-10-10T00:28:50.116Z,100688.69
2022-10-10T00:31:18.853Z,100690.41
2022-10-10T00:33:48.553Z,100692.16
2022-10-10T00:36:16.159Z,100692.13
2022-10-10T00:38:44.673Z,100695.59
2022-10-10T00:41:12.490Z,100692.13
2022-10-10T00:43:40.814Z,100693.94
2022-10-10T00:46:08.376Z,100693.97
2022-10-10T00:48:45.285Z,100702.72
2022-10-10T00:51:18.949Z,100706.28
2022-10-10T00:53:53.402Z,100702.81
2022-10-10T00:56:25.355Z,100708.97
2022-10-10T00:58:56.552Z,100709.84
2022-10-10T01:01:24.199Z,100707.22
2022-10-10T01:03:57.954Z,100714.22
2022-10-10T01:06:25.648Z,100710.69
2022-10-10T01:08:54.630Z,100708.03
2022-10-10T01:11:40.264Z,100713.25
2022-10-10T01:14:29.758Z,100704.44
2022-10-10T01:17:11.239Z,100714.00
2022-10-10T01:20:09.895Z,100710.47
2022-10-10T01:23:03.115Z,100709.56
2022-10-10T01:25:38.547Z,100706.97
2022-10-10T01:28:34.291Z,100704.41
2022-10-10T01:31:09.899Z,100704.38
2022-10-10T01:33:55.213Z,100699.09
2022-10-10T01:36:28.334Z,100707.00
2022-10-10T01:39:20.387Z,100711.41
2022-10-10T01:42:25.930Z,100713.16
2022-10-10T01:44:54.888Z,100707.88
2022-10-10T01:47:22.972Z,100706.13
2022-10-10T01:49:54.573Z,100721.03
2022-10-10T01:52:29.821Z,100728.94
2022-10-10T01:54:57.940Z,100724.50
2022-10-10T01:57:46.116Z,100732.41
2022-10-10T02:00:17.419Z,100728.88
2022-10-10T02:03:17.630Z,100734.09
2022-10-10T02:05:57.470Z,100740.22
2022-10-10T02:08:36.155Z,100732.34
2022-10-10T02:11:07.116Z,100733.22
2022-10-10T02:13:49.011Z,100734.06
2022-10-10T02:16:25.760Z,100736.72
2022-10-10T02:18:54.510Z,100738.47
2022-10-10T02:21:23.662Z,100738.47
2022-10-10T02:23:54.955Z,100732.34
2022-10-10T02:26:24.871Z,100729.75
2022-10-10T02:28:59.733Z,100730.63
2022-10-10T02:31:36.388Z,100727.97
2022-10-10T02:34:27.546Z,100728.88
2022-10-10T02:37:02.431Z,100730.59
2022-10-10T02:39:36.583Z,100734.94
2022-10-10T02:42:07.781Z,100723.53
2022-10-10T02:44:37.276Z,100729.66
2022-10-10T02:47:06.575Z,100727.91
2022-10-10T02:49:35.558Z,100729.66
2022-10-10T02:52:04.630Z,100734.03
2022-10-10T02:54:32.000Z,100729.63
2022-10-10T02:56:59.774Z,100727.88
2022-10-10T02:59:28.248Z,100741.88
2022-10-10T03:01:57.450Z,100741.00
2022-10-10T03:04:25.259Z,100752.38
2022-10-10T03:06:53.793Z,100743.53
2022-10-10T03:09:21.172Z,100752.25
2022-10-10T03:11:49.062Z,100751.38
2022-10-10T03:14:17.299Z,100744.41
2022-10-10T03:16:45.910Z,100737.47
2022-10-10T03:19:13.669Z,100741.84
2022-10-10T03:21:41.126Z,100742.69
2022-10-10T03:24:08.600Z,100735.59
2022-10-10T03:26:36.528Z,100747.03
2022-10-10T03:29:04.352Z,100740.06
2022-10-10T03:31:32.696Z,100733.09
2022-10-10T03:34:01.831Z,100731.34
2022-10-10T03:36:30.909Z,100727.00
2022-10-10T03:38:58.318Z,100722.63
2022-10-10T03:41:25.943Z,100722.63
2022-10-10T03:43:54.116Z,100725.22
2022-10-10T03:46:22.050Z,100730.53
2022-10-10T03:48:50.502Z,100740.19
2022-10-10T03:51:18.430Z,100727.94
2022-10-10T03:53:45.877Z,100728.75
2022-10-10T03:56:14.865Z,100736.63
2022-10-10T03:58:43.013Z,100735.81
2022-10-10T04:01:10.969Z,100742.81
2022-10-10T04:03:39.907Z,100748.91
2022-10-10T04:06:07.520Z,100753.34
2022-10-10T04:08:34.943Z,100752.47
2022-10-10T04:11:02.460Z,100756.84
2022-10-10T04:13:30.364Z,100775.28
2022-10-10T04:15:59.063Z,100781.38
2022-10-10T04:18:26.513Z,100783.97
2022-10-10T04:20:54.323Z,100781.22
2022-10-10T04:23:21.775Z,100794.31
2022-10-10T04:25:54.375Z,100799.53
2022-10-10T04:28:24.091Z,100806.72
2022-10-10T04:30:51.604Z,100805.84
2022-10-10T04:33:19.116Z,100803.28
2022-10-10T04:35:48.578Z,100803.41
2022-10-10T04:38:17.808Z,100799.16
2022-10-10T04:40:49.379Z,100802.72
2022-10-10T04:43:19.048Z,100801.88
2022-10-10T04:45:46.868Z,100804.50
2022-10-10T04:48:14.761Z,100805.34
2022-10-10T04:50:42.134Z,100807.09
2022-10-10T04:53:11.749Z,100800.13
2022-10-10T04:55:39.891Z,100801.00
2022-10-10T04:58:07.300Z,100809.75
2022-10-10T05:00:34.726Z,100801.84
2022-10-10T05:03:02.151Z,100803.59
2022-10-10T05:05:29.530Z,100801.84
2022-10-10T05:07:57.239Z,100812.31
2022-10-10T05:10:26.104Z,100808.78
2022-10-10T05:12:54.338Z,100815.78
2022-10-10T05:15:22.794Z,100811.38
2022-10-10T05:17:50.295Z,100822.78
2022-10-10T05:20:18.930Z,100821.00
2022-10-10T05:22:48.476Z,100824.50
2022-10-10T05:25:16.858Z,100823.56
2022-10-10T05:27:44.737Z,100826.22
2022-10-10T05:30:12.788Z,100831.50
2022-10-10T05:32:43.048Z,100825.38
2022-10-10T05:35:13.190Z,100828.00
2022-10-10T05:37:41.735Z,100838.53
2022-10-10T05:40:09.576Z,100838.53
2022-10-10T05:42:37.395Z,100838.53
2022-10-10T05:45:05.080Z,100835.03
2022-10-10T05:47:33.240Z,100836.72
2022-10-10T05:50:02.433Z,100838.41
2022-10-10T05:52:30.029Z,100841.94
2022-10-10T05:54:57.414Z,100847.22
2022-10-10T05:57:24.912Z,100859.56
2022-10-10T05:59:52.320Z,100857.84
2022-10-10T06:02:20.948Z,100862.25
2022-10-10T06:05:04.840Z,100872.72
2022-10-10T06:07:59.028Z,100868.34
2022-10-10T06:10:21.796Z,100881.53
2022-10-10T06:12:49.815Z,100883.28
2022-10-10T06:15:18.550Z,100887.63
2022-10-10T06:17:45.922Z,100885.00
2022-10-10T06:20:14.895Z,100891.09
2022-10-10T06:22:42.304Z,100887.59
2022-10-10T06:25:29.066Z,100884.97
2022-10-10T06:27:59.242Z,100885.78
2022-10-10T06:30:27.052Z,100884.00
2022-10-10T06:32:57.100Z,100889.28
2022-10-10T06:35:25.762Z,100891.94
2022-10-10T06:37:53.254Z,100895.47
2022-10-10T06:40:20.604Z,100896.34
2022-10-10T06:42:48.163Z,100907.78
2022-10-10T06:45:19.066Z,100915.63
2022-10-10T06:47:47.399Z,100915.66
2022-10-10T06:50:15.186Z,100923.53
2022-10-10T06:52:43.481Z,100928.78
2022-10-10T06:55:10.890Z,100941.03
2022-10-10T06:57:39.436Z,100945.41
2022-10-10T07:00:07.841Z,100944.50
2022-10-10T07:02:40.766Z,100947.97
2022-10-10T07:05:12.203Z,100945.31
2022-10-10T07:07:40.404Z,100956.72
2022-10-10T07:10:12.877Z,100961.97
2022-10-10T07:12:44.678Z,100963.69
2022-10-10T07:15:12.933Z,100970.69
2022-10-10T07:17:40.468Z,100968.91
2022-10-10T07:20:08.735Z,100976.75
2022-10-10T07:22:36.514Z,100977.59
2022-10-10T07:25:07.473Z,100978.44
2022-10-10T07:27:35.652Z,100984.53
2022-10-10T07:30:03.114Z,100989.75
2022-10-10T07:32:32.080Z,100994.97
2022-10-10T07:34:59.519Z,100994.97
2022-10-10T07:37:27.679Z,101003.69
2022-10-10T07:39:55.491Z,101007.16
2022-10-10T07:42:23.347Z,101008.91
2022-10-10T07:44:50.695Z,101014.13
2022-10-10T07:47:18.551Z,101018.50
2022-10-10T07:49:45.946Z,101025.50
2022-10-10T07:52:14.963Z,101028.97
2022-10-10T07:54:43.015Z,101026.31
2022-10-10T07:57:10.490Z,101028.91
2022-10-10T07:59:37.994Z,101035.88
2022-10-10T08:02:06.371Z,101034.94
2022-10-10T08:04:36.003Z,101047.13
2022-10-10T08:07:03.989Z,101044.47
2022-10-10T08:09:32.937Z,101055.91
2022-10-10T08:12:00.458Z,101057.59
2022-10-10T08:14:27.904Z,101066.31
2022-10-10T08:16:59.857Z,101067.16
2022-10-10T08:19:27.985Z,101069.72
2022-10-10T08:21:56.840Z,101078.44
2022-10-10T08:24:25.297Z,101079.16
2022-10-10T08:26:53.570Z,101085.13
2022-10-10T08:29:20.951Z,101093.69
2022-10-10T08:31:49.364Z,101082.06
2022-10-10T08:34:17.245Z,101093.47
2022-10-10T08:36:47.758Z,101093.50
2022-10-10T08:39:17.415Z,101103.22
2022-10-10T08:42:00.882Z,101104.97
2022-10-10T08:44:46.986Z,101117.97
2022-10-10T08:47:22.839Z,101111.59
2022-10-10T08:49:56.950Z,101113.97
2022-10-10T08:52:40.043Z,101119.09
2022-10-10T08:55:23.301Z,101117.13
2022-10-10T08:57:56.652Z,101124.84
2022-10-10T09:00:28.510Z,101121.03
2022-10-10T09:02:59.298Z,101124.22
2022-10-10T09:05:32.787Z,101128.91
2022-10-10T09:08:12.155Z,101142.09
2022-10-10T09:10:40.495Z,101142.28
2022-10-10T09:13:21.657Z,101146.91
2022-10-10T09:15:59.614Z,101150.22
2022-10-10T09:19:02.073Z,101160.25
2022-10-10T09:21:35.205Z,101160.31
2022-10-10T09:24:18.037Z,101168.13
2022-10-10T09:27:05.458Z,101171.19
2022-10-10T09:29:34.076Z,101174.41
2022-10-10T09:32:12.100Z,101176.34
2022-10-10T09:34:49.336Z,101181.75
2022-10-10T09:37:45.835Z,101181.34
2022-10-10T09:40:34.604Z,101180.22
2022-10-10T09:43:14.384Z,101181.53
2022-10-10T09:45:52.343Z,101180.03
2022-10-10T09:48:25.347Z,101178.25
2022-10-10T09:50:53.014Z,101169.53
2022-10-10T09:53:20.476Z,101170.28
2022-10-10T09:55:51.540Z,101183.34
2022-10-10T09:58:39.161Z,101183.78
2022-10-10T10:01:18.819Z,101188.66
2022-10-10T10:04:34.405Z,101194.44
2022-10-10T10:07:30.842Z,101201.84
2022-10-10T10:10:20.092Z,101208.53
2022-10-10T10:12:48.534Z,101212.94
2022-10-10T10:15:30.068Z,101209.72
2022-10-10T10:18:10.710Z,101214.41
2022-10-10T10:20:41.673Z,101217.31
2022-10-10T10:23:34.851Z,101211.69
2022-10-10T10:26:14.989Z,101221.75
2022-10-10T10:28:45.096Z,101222.84
2022-10-10T10:31:31.119Z,101231.75
2022-10-10T10:34:43.222Z,101221.31
2022-10-10T10:37:17.721Z,101232.88
2022-10-10T10:40:14.929Z,101231.00
2022-10-10T10:42:45.275Z,101233.50
2022-10-10T10:45:45.096Z,101240.56
2022-10-10T10:48:44.168Z,101244.91
2022-10-10T10:51:29.918Z,101251.19
2022-10-10T10:54:03.244Z,101260.06
2022-10-10T10:56:40.950Z,101255.63
2022-10-10T11:00:25.797Z,101263.59
2022-10-10T11:03:02.518Z,101281.34
2022-10-10T11:06:06.118Z,101274.44
2022-10-10T11:09:49.095Z,101289.63
2022-10-10T11:12:42.642Z,101287.28
2022-10-10T11:15:24.218Z,101297.28
2022-10-10T11:18:00.436Z,101306.47
2022-10-10T11:20:36.926Z,101306.81
2022-10-10T11:23:17.718Z,101299.97
2022-10-10T11:25:57.754Z,101308.03
2022-10-10T11:28:33.829Z,101309.03
2022-10-10T11:31:14.143Z,101310.88
2022-10-10T11:33:57.236Z,101322.38
2022-10-10T11:36:32.631Z,101318.03
2022-10-10T11:39:30.355Z,101327.84
2022-10-10T11:42:06.412Z,101328.75
2022-10-10T11:44:46.758Z,101331.38
2022-10-10T11:47:18.246Z,101328.66
2022-10-10T11:50:01.004Z,101320.63
2022-10-10T11:52:49.829Z,101326.75
2022-10-10T11:55:47.734Z,101326.59
2022-10-10T11:58:32.105Z,101326.44
2022-10-10T12:01:25.455Z,101323.50
2022-10-10T12:03:54.501Z,101320.59
2022-10-10T12:06:35.458Z,101319.44
2022-10-10T12:09:11.940Z,101326.22
2022-10-10T12:11:56.838Z,101322.34
2022-10-10T12:14:32.842Z,101321.97
2022-10-10T12:17:01.164Z,101316.44
2022-10-10T12:19:29.257Z,101316.28
2022-10-10T12:22:05.830Z,101326.94
2022-10-10T12:24:42.510Z,101327.81
2022-10-10T12:27:26.663Z,101335.75
2022-10-10T12:29:57.752Z,101332.13
2022-10-10T12:32:41.344Z,101338.84
2022-10-10T12:35:35.118Z,101330.19
2022-10-10T12:38:10.928Z,101337.41
2022-10-10T12:40:57.436Z,101330.75
2022-10-10T12:43:38.522Z,101328.84
2022-10-10T12:46:43.131Z,101330.97
2022-10-10T12:49:23.335Z,101330.59
2022-10-10T12:52:10.218Z,101333.00
2022-10-10T12:54:44.711Z,101335.34
2022-10-10T12:57:12.061Z,101347.19
2022-10-10T12:59:41.500Z,101346.84
2022-10-10T13:02:28.022Z,101360.66
2022-10-10T13:05:00.788Z,101358.50
2022-10-10T13:07:29.828Z,101363.28
2022-10-10T13:10:06.878Z,101361.63
2022-10-10T13:12:35.350Z,101364.69
2022-10-10T13:15:02.786Z,101370.34
2022-10-10T13:17:39.602Z,101372.19
2022-10-10T13:20:28.125Z,101382.09
2022-10-10T13:22:57.024Z,101377.75
2022-10-10T13:25:24.650Z,101378.88
2022-10-10T13:27:52.683Z,101383.38
2022-10-10T13:30:23.417Z,101384.38
2022-10-10T13:32:53.217Z,101383.50
2022-10-10T13:35:24.020Z,101388.00
2022-10-10T13:38:00.872Z,101394.28
2022-10-10T13:40:31.069Z,101396.09
2022-10-10T13:42:59.188Z,101396.16
2022-10-10T13:45:44.100Z,101401.31
2022-10-10T13:48:20.869Z,101391.69
2022-10-10T13:51:01.766Z,101395.16
2022-10-10T13:53:30.211Z,101397.69
2022-10-10T13:56:04.064Z,101390.66
2022-10-10T13:58:39.142Z,101390.63
2022-10-10T14:01:07.371Z,101396.66
2022-10-10T14:03:35.738Z,101400.09
2022-10-10T14:06:05.086Z,101396.47
2022-10-10T14:08:34.315Z,101401.59
2022-10-10T14:11:09.033Z,101411.97
2022-10-10T14:13:39.015Z,101410.19
2022-10-10T14:16:32.266Z,101407.63
2022-10-10T14:19:01.684Z,101405.91
2022-10-10T14:21:29.057Z,101413.94
2022-10-10T14:23:56.512Z,101403.41
2022-10-10T14:26:25.904Z,101410.47
2022-10-10T14:28:53.500Z,101413.94
2022-10-10T14:31:20.992Z,101412.16
2022-10-10T14:33:48.416Z,101421.75
2022-10-10T14:36:16.144Z,101420.91
2022-10-10T14:38:45.092Z,101427.09
2022-10-10T14:41:16.108Z,101426.25
2022-10-10T14:43:46.002Z,101431.56
2022-10-10T14:46:20.806Z,101433.44
2022-10-10T14:48:50.047Z,101432.53
2022-10-10T14:51:34.883Z,101439.56
2022-10-10T14:54:11.759Z,101439.59
2022-10-10T14:57:09.373Z,101438.69
2022-10-10T14:59:46.109Z,101441.25
2022-10-10T15:02:18.634Z,101443.81
2022-10-10T15:04:46.651Z,101446.47
2022-10-10T15:07:15.379Z,101453.53
2022-10-10T15:12:39.467Z,101468.59
2022-10-10T15:15:08.856Z,101454.50
2022-10-10T15:17:36.273Z,101453.69
2022-10-10T15:20:06.467Z,101459.94
2022-10-10T15:22:34.067Z,101458.22
2022-10-10T15:25:02.711Z,101461.56
2022-10-10T15:27:32.928Z,101463.31
2022-10-10T15:30:02.433Z,101467.75
2022-10-10T15:32:29.800Z,101466.03
2022-10-10T15:34:58.311Z,101460.81
2022-10-10T15:37:26.955Z,101471.41
2022-10-10T15:39:56.846Z,101466.13
2022-10-10T15:42:24.557Z,101469.69
2022-10-10T15:44:53.126Z,101477.72
2022-10-10T15:47:20.930Z,101479.47
2022-10-10T15:49:49.839Z,101475.09
2022-10-10T15:52:19.863Z,101475.94
2022-10-10T15:54:51.270Z,101480.28
2022-10-10T15:57:20.314Z,101484.75
2022-10-10T15:59:47.732Z,101478.72
2022-10-10T16:02:16.759Z,101481.38
2022-10-10T16:04:45.812Z,101478.72
2022-10-10T16:07:31.745Z,101489.25
2022-10-10T16:10:03.429Z,101484.88
2022-10-10T16:12:30.955Z,101489.34
2022-10-10T16:15:06.019Z,101487.56
2022-10-10T16:17:35.756Z,101492.00
2022-10-10T16:20:03.803Z,101494.66
2022-10-10T16:22:31.940Z,101488.44
2022-10-10T16:27:52.950Z,101505.19
2022-10-10T16:30:23.116Z,101510.63
2022-10-10T16:32:50.462Z,101514.34
2022-10-10T16:35:19.441Z,101516.09
2022-10-10T16:37:46.923Z,101522.31
2022-10-10T16:40:15.459Z,101532.03
2022-10-10T16:42:42.864Z,101529.50
2022-10-10T16:45:12.369Z,101534.78
2022-10-10T16:47:39.730Z,101535.69
2022-10-10T16:50:08.360Z,101533.94
2022-10-10T16:52:38.508Z,101532.22
2022-10-10T16:55:08.045Z,101541.97
2022-10-10T16:57:36.787Z,101542.91
2022-10-10T17:00:08.039Z,101546.28
2022-10-10T17:02:38.947Z,101558.72
2022-10-10T17:05:07.824Z,101557.88
2022-10-10T17:07:36.575Z,101560.50
2022-10-10T17:10:04.349Z,101549.06
2022-10-10T17:12:33.243Z,101558.72
2022-10-10T17:15:01.620Z,101564.88
2022-10-10T17:17:29.385Z,101568.34
2022-10-10T17:19:57.595Z,101571.91
2022-10-10T17:22:26.425Z,101573.69
2022-10-10T17:24:53.841Z,101585.19
2022-10-10T17:27:21.327Z,101586.00
2022-10-10T17:29:51.438Z,101585.13
2022-10-10T17:32:20.656Z,101593.88
2022-10-10T17:34:48.289Z,101594.81
2022-10-10T17:37:15.886Z,101600.09
2022-10-10T17:39:43.247Z,101596.63
2022-10-10T17:42:10.884Z,101610.66
2022-10-10T17:44:46.520Z,101613.38
2022-10-10T17:47:17.873Z,101627.47
2022-10-10T17:49:47.013Z,101623.06
2022-10-10T17:52:18.869Z,101636.28
2022-10-10T17:54:49.380Z,101645.06
2022-10-10T17:57:17.700Z,101645.09
2022-10-10T17:59:45.724Z,101645.97
2022-10-10T18:02:18.823Z,101653.91
2022-10-10T18:04:46.365Z,101657.44
2022-10-10T18:07:15.147Z,101660.94
2022-10-10T18:09:42.716Z,101673.28
2022-10-10T18:12:10.246Z,101673.25
2022-10-10T18:14:39.086Z,101665.34
2022-10-10T18:17:07.229Z,101668.88
2022-10-10T18:19:34.724Z,101677.69
2022-10-10T18:22:03.872Z,101677.69
2022-10-10T18:24:31.665Z,101689.09
2022-10-10T18:26:59.105Z,101693.50
2022-10-10T18:29:26.588Z,101703.13
2022-10-10T18:31:54.398Z,101707.53
2022-10-10T18:34:24.873Z,101707.53
2022-10-10T18:36:52.283Z,101714.56
2022-10-10T18:39:20.456Z,101707.53
2022-10-10T18:41:47.891Z,101713.72
2022-10-10T18:44:17.998Z,101708.44
2022-10-10T18:46:46.337Z,101711.09
2022-10-10T18:49:14.565Z,101714.59
2022-10-10T18:51:43.395Z,101713.69
2022-10-10T18:54:16.857Z,101717.22
2022-10-10T18:56:46.977Z,101711.94
2022-10-10T18:59:17.675Z,101718.09
2022-10-10T19:01:46.531Z,101718.97
2022-10-10T19:04:15.474Z,101727.75
2022-10-10T19:06:43.604Z,101727.75
2022-10-10T19:09:13.772Z,101736.53
2022-10-10T19:11:44.691Z,101738.25
2022-10-10T19:14:17.159Z,101738.25
2022-10-10T19:16:46.807Z,101743.53
2022-10-10T19:19:17.268Z,101754.94
2022-10-10T19:21:47.125Z,101762.78
2022-10-10T19:24:21.696Z,101755.75
2022-10-10T19:26:53.477Z,101761.91
2022-10-10T19:29:26.046Z,101763.63
2022-10-10T19:31:56.881Z,101771.53
2022-10-10T19:34:24.426Z,101784.72
2022-10-10T19:36:52.363Z,101775.06
2022-10-10T19:39:19.800Z,101773.25
2022-10-10T19:41:49.740Z,101777.59
2022-10-10T19:44:17.974Z,101789.84
2022-10-10T19:46:45.824Z,101775.78
2022-10-10T19:49:13.339Z,101790.72
2022-10-10T19:51:41.878Z,101782.81
2022-10-10T19:54:09.814Z,101784.50
2022-10-10T19:56:38.507Z,101787.13
2022-10-10T19:59:07.832Z,101793.28
2022-10-10T20:01:35.589Z,101805.56
2022-10-10T20:04:03.249Z,101801.16
2022-10-10T20:06:31.542Z,101804.69
2022-10-10T20:08:59.789Z,101821.34
2022-10-10T20:11:29.469Z,101816.91
2022-10-10T20:13:57.531Z,101818.56
2022-10-10T20:16:26.947Z,101821.22
2022-10-10T20:18:57.195Z,101822.16
2022-10-10T20:21:31.262Z,101826.56
2022-10-10T20:24:06.237Z,101826.56
2022-10-10T20:26:35.630Z,101825.69
2022-10-10T20:29:03.636Z,101835.34
2022-10-10T20:31:34.958Z,101830.91
2022-10-10T20:34:07.117Z,101837.88
2022-10-10T20:36:36.183Z,101836.97
2022-10-10T20:39:08.402Z,101848.31
2022-10-10T20:41:38.445Z,101853.56
2022-10-10T20:44:07.392Z,101848.31
2022-10-10T20:46:38.743Z,101853.59
2022-10-10T20:49:11.990Z,101860.63
2022-10-10T20:51:39.781Z,101859.72
2022-10-10T20:54:08.032Z,101867.63
2022-10-10T20:56:36.077Z,101867.63
2022-10-10T20:59:06.277Z,101873.63
2022-10-10T21:01:35.126Z,101873.75
2022-10-10T21:08:19.936Z,101882.50
2022-10-10T21:10:47.510Z,101888.56
2022-10-10T21:13:15.751Z,101882.44
2022-10-10T21:15:45.012Z,101884.22
2022-10-10T21:18:12.805Z,101886.03
2022-10-10T21:20:40.480Z,101889.41
2022-10-10T21:23:08.014Z,101898.19
2022-10-10T21:25:40.588Z,101899.09
2022-10-10T21:28:09.935Z,101892.88
2022-10-10T21:30:37.367Z,101903.41
2022-10-10T21:33:05.884Z,101896.34
2022-10-10T21:41:19.626Z,101921.66
2022-10-10T21:43:49.267Z,101917.28
2022-10-10T21:46:19.771Z,101914.63
2022-10-10T21:48:48.961Z,101920.84
2022-10-10T21:51:16.606Z,101916.41
2022-10-10T21:53:44.948Z,101919.91
2022-10-10T21:56:13.316Z,101925.16
2022-10-10T21:58:43.646Z,101929.44
2022-10-10T22:01:23.555Z,101934.66
2022-10-10T22:03:53.685Z,101939.88
2022-10-10T22:06:23.436Z,101937.38
2022-10-10T22:08:55.820Z,101935.53
2022-10-10T22:11:25.589Z,101941.63
2022-10-10T22:13:53.468Z,101936.44
2022-10-10T22:16:22.122Z,101940.69
2022-10-10T22:18:54.447Z,101941.56
2022-10-10T22:21:28.054Z,101931.13
2022-10-10T22:24:04.735Z,101931.84
2022-10-10T22:26:35.191Z,101932.72
2022-10-10T22:29:03.156Z,101935.41
2022-10-10T22:31:30.665Z,101926.50
2022-10-10T22:33:58.494Z,101933.50
2022-10-10T22:36:26.624Z,101939.38
2022-10-10T22:38:54.114Z,101928.94
2022-10-10T22:41:22.142Z,101931.72
2022-10-10T22:43:49.880Z,101932.50
2022-10-10T22:46:18.254Z,101922.78
2022-10-10T22:48:46.499Z,101922.75
2022-10-10T22:51:17.229Z,101928.81
2022-10-10T22:53:48.331Z,101933.09
2022-10-10T22:56:20.140Z,101930.44
2022-10-10T22:58:51.035Z,101926.00
2022-10-10T23:01:22.186Z,101931.34
2022-10-10T23:04:00.374Z,101930.38
2022-10-10T23:06:28.657Z,101934.72
2022-10-10T23:08:56.004Z,101928.50
2022-10-10T23:11:23.793Z,101931.91
2022-10-10T23:13:51.297Z,101932.78
2022-10-10T23:16:19.519Z,101934.72
2022-10-10T23:18:47.745Z,101930.22
2022-10-10T23:21:15.797Z,101925.84
2022-10-10T23:23:43.186Z,101931.16
2022-10-10T23:26:13.248Z,101929.19
2022-10-10T23:28:41.088Z,101929.16
2022-10-10T23:31:12.508Z,101931.00
2022-10-10T23:33:40.030Z,101929.97
2022-10-10T23:36:11.489Z,101931.69
2022-10-10T23:38:40.733Z,101935.81
2022-10-10T23:41:10.742Z,101934.91
2022-10-10T23:43:39.377Z,101926.09
2022-10-10T23:46:08.033Z,101931.22
2022-10-10T23:48:36.945Z,101932.41
2022-10-10T23:51:05.199Z,101932.50
2022-10-10T23:53:34.028Z,101934.03
2022-10-10T23:56:01.932Z,101930.38
2022-10-10T23:58:29.602Z,101927.59
